Iepe, Brazil
Current Conditions -  °F | °C
As of 11:00 PM on Wednesday 22 Oct 2014 (Local Time) from SBDN Reporting Station
Clear Clear  
Wind Chill: 73°   Ceiling: Unl
Heat Index: 73°   Visibility: 6mi
Dew Point: 57°   Wind: 14mph
Humidity: 57%   Direction: 120°ESE
Pressure: 30"   Gusts: 25mph
Location:  22.64°S, 51.11°W
Report Text: SBDN 230100Z 12012G22KT CAVOK 23/14 Q1016
Loading
Personal Weather Stations






























Interactive Weather Map
Tropical Storm Tracking
New forecast layout! Learn more

10-Day Weather Forecast

Advertisements
Track Severe Weather on mobile